Terminal Aerodrome Forecast
Issued by NWS

Home | Current Version | Previous Version | Graphics & Text | Print | Product List | Glossary On
Versions: 1 2 3 4 5 6 7 8 9 10 11 12 13 14 15 16 17 18
000
FTUS43 KBIS 210500
TAFJMS
TAF
KJMS 210525Z 2106/2206 17006KT P6SM SKC
     FM211500 15011KT P6SM SCT090
      TEMPO 2121/2201 VRB30G40KT 2SM +TSRAGR BKN050CB
     FM220100 12012KT P6SM -TSRA BKN050CB=

USA.gov is the U.S. government's official web portal to all federal, state and local government web resources and services.